sensor_id;sensor_type;location;lat;lon;timestamp;pressure;altitude;pressure_sealevel;temperature;humidity
37390;BME280;39679;49.000;8.390;2022-11-06T00:04:01;100652.63;;;17.56;53.46
37390;BME280;39679;49.000;8.390;2022-11-06T00:09:07;100644.69;;;17.53;53.39
37390;BME280;39679;49.000;8.390;2022-11-06T00:14:08;100657.94;;;17.53;53.33
37390;BME280;39679;49.000;8.390;2022-11-06T00:19:08;100661.50;;;17.52;53.21
37390;BME280;39679;49.000;8.390;2022-11-06T00:24:11;100670.31;;;17.52;53.14
37390;BME280;39679;49.000;8.390;2022-11-06T00:29:13;100669.47;;;17.50;53.05
37390;BME280;39679;49.000;8.390;2022-11-06T00:34:14;100667.69;;;17.51;53.23
37390;BME280;39679;49.000;8.390;2022-11-06T00:39:14;100674.75;;;17.50;53.06
37390;BME280;39679;49.000;8.390;2022-11-06T00:44:14;100658.00;;;17.50;52.96
37390;BME280;39679;49.000;8.390;2022-11-06T00:49:15;100658.88;;;17.47;53.00
37390;BME280;39679;49.000;8.390;2022-11-06T00:54:15;100652.72;;;17.47;53.07
37390;BME280;39679;49.000;8.390;2022-11-06T00:59:15;100652.72;;;17.47;52.93
37390;BME280;39679;49.000;8.390;2022-11-06T01:04:21;100672.16;;;17.46;53.14
37390;BME280;39679;49.000;8.390;2022-11-06T01:09:24;100659.81;;;17.45;53.06
37390;BME280;39679;49.000;8.390;2022-11-06T01:14:25;100649.19;;;17.45;53.04
37390;BME280;39679;49.000;8.390;2022-11-06T01:19:26;100644.81;;;17.44;53.15
37390;BME280;39679;49.000;8.390;2022-11-06T01:24:27;100645.66;;;17.44;52.93
37390;BME280;39679;49.000;8.390;2022-11-06T01:29:28;100665.13;;;17.43;52.93
37390;BME280;39679;49.000;8.390;2022-11-06T01:34:28;100649.25;;;17.42;52.87
37390;BME280;39679;49.000;8.390;2022-11-06T01:39:28;100654.56;;;17.40;52.81
37390;BME280;39679;49.000;8.390;2022-11-06T01:49:35;100624.56;;;17.40;52.74
37390;BME280;39679;49.000;8.390;2022-11-06T01:54:39;100613.97;;;17.40;52.97
37390;BME280;39679;49.000;8.390;2022-11-06T01:59:42;100606.91;;;17.39;52.72
37390;BME280;39679;49.000;8.390;2022-11-06T02:04:46;100590.13;;;17.38;52.80
37390;BME280;39679;49.000;8.390;2022-11-06T02:09:46;100581.31;;;17.36;52.46
37390;BME280;39679;49.000;8.390;2022-11-06T02:20:09;100561.00;;;17.37;52.84
37390;BME280;39679;49.000;8.390;2022-11-06T02:30:26;100537.22;;;17.32;52.68
37390;BME280;39679;49.000;8.390;2022-11-06T02:35:33;100527.56;;;17.31;52.89
37390;BME280;39679;49.000;8.390;2022-11-06T02:40:38;100527.56;;;17.31;52.79
37390;BME280;39679;49.000;8.390;2022-11-06T02:45:52;100526.66;;;17.30;52.74
37390;BME280;39679;49.000;8.390;2022-11-06T02:50:55;100526.66;;;17.30;52.98
37390;BME280;39679;49.000;8.390;2022-11-06T02:56:01;100527.56;;;17.29;52.80
37390;BME280;39679;49.000;8.390;2022-11-06T03:01:11;100518.75;;;17.29;52.48
37390;BME280;39679;49.000;8.390;2022-11-06T03:06:22;100524.06;;;17.29;52.37
37390;BME280;39679;49.000;8.390;2022-11-06T03:11:28;100522.28;;;17.28;52.69
37390;BME280;39679;49.000;8.390;2022-11-06T03:27:07;100532.03;;;17.26;52.37
37390;BME280;39679;49.000;8.390;2022-11-06T03:37:37;100517.94;;;17.24;52.07
37390;BME280;39679;49.000;8.390;2022-11-06T03:42:40;100517.06;;;17.23;52.26
37390;BME280;39679;49.000;8.390;2022-11-06T03:48:29;100516.19;;;17.23;52.05
37390;BME280;39679;49.000;8.390;2022-11-06T03:53:14;100502.06;;;17.22;52.10
37390;BME280;39679;49.000;8.390;2022-11-06T03:58:19;100499.44;;;17.22;52.22
37390;BME280;39679;49.000;8.390;2022-11-06T04:03:31;100485.34;;;17.20;52.20
37390;BME280;39679;49.000;8.390;2022-11-06T04:08:34;100474.75;;;17.20;52.20
37390;BME280;39679;49.000;8.390;2022-11-06T04:13:37;100472.97;;;17.19;52.12
37390;BME280;39679;49.000;8.390;2022-11-06T04:18:38;100477.41;;;17.19;52.19
37390;BME280;39679;49.000;8.390;2022-11-06T04:34:18;100497.72;;;17.18;52.07
37390;BME280;39679;49.000;8.390;2022-11-06T04:45:04;100504.72;;;17.22;52.40
37390;BME280;39679;49.000;8.390;2022-11-06T04:50:07;100502.03;;;17.24;52.57
37390;BME280;39679;49.000;8.390;2022-11-06T04:55:10;100508.19;;;17.26;52.55
37390;BME280;39679;49.000;8.390;2022-11-06T05:00:14;100517.91;;;17.25;52.31
37390;BME280;39679;49.000;8.390;2022-11-06T05:05:15;100513.50;;;17.26;52.64
37390;BME280;39679;49.000;8.390;2022-11-06T05:10:16;100511.72;;;17.26;52.71
37390;BME280;39679;49.000;8.390;2022-11-06T05:15:16;100508.16;;;17.27;52.45
37390;BME280;39679;49.000;8.390;2022-11-06T05:20:16;100491.41;;;17.27;52.10
37390;BME280;39679;49.000;8.390;2022-11-06T05:25:17;100508.19;;;17.26;52.11
37390;BME280;39679;49.000;8.390;2022-11-06T05:30:17;100510.88;;;17.24;51.98
37390;BME280;39679;49.000;8.390;2022-11-06T05:35:19;100506.47;;;17.23;51.87
37390;BME280;39679;49.000;8.390;2022-11-06T05:40:19;100508.25;;;17.23;52.12
37390;BME280;39679;49.000;8.390;2022-11-06T05:45:20;100487.94;;;17.22;51.74
37390;BME280;39679;49.000;8.390;2022-11-06T05:50:20;100476.47;;;17.21;52.10
37390;BME280;39679;49.000;8.390;2022-11-06T05:55:20;100467.69;;;17.21;51.91
37390;BME280;39679;49.000;8.390;2022-11-06T06:00:21;100457.97;;;17.20;52.17
37390;BME280;39679;49.000;8.390;2022-11-06T06:05:21;100452.66;;;17.20;52.12
37390;BME280;39679;49.000;8.390;2022-11-06T06:10:21;100450.94;;;17.19;52.08
37390;BME280;39679;49.000;8.390;2022-11-06T06:15:22;100443.88;;;17.18;52.26
37390;BME280;39679;49.000;8.390;2022-11-06T06:20:22;100432.41;;;17.17;52.37
37390;BME280;39679;49.000;8.390;2022-11-06T06:25:23;100420.97;;;17.17;52.19
37390;BME280;39679;49.000;8.390;2022-11-06T06:30:24;100416.53;;;17.16;52.21
37390;BME280;39679;49.000;8.390;2022-11-06T06:35:24;100402.41;;;17.15;52.19
37390;BME280;39679;49.000;8.390;2022-11-06T06:40:25;100391.81;;;17.15;52.40
37390;BME280;39679;49.000;8.390;2022-11-06T06:45:28;100378.59;;;17.15;52.37
37390;BME280;39679;49.000;8.390;2022-11-06T06:50:28;100359.19;;;17.13;52.39
37390;BME280;39679;49.000;8.390;2022-11-06T06:55:28;100348.59;;;17.13;52.51
37390;BME280;39679;49.000;8.390;2022-11-06T07:00:29;100341.59;;;17.12;52.42
37390;BME280;39679;49.000;8.390;2022-11-06T07:05:30;100325.69;;;17.12;52.41
37390;BME280;39679;49.000;8.390;2022-11-06T07:10:30;100315.09;;;17.12;52.54
37390;BME280;39679;49.000;8.390;2022-11-06T07:15:31;100296.56;;;17.12;52.47
37390;BME280;39679;49.000;8.390;2022-11-06T07:20:32;100286.84;;;17.11;52.61
37390;BME280;39679;49.000;8.390;2022-11-06T07:25:33;100281.56;;;17.11;52.39
37390;BME280;39679;49.000;8.390;2022-11-06T07:30:34;100273.63;;;17.11;52.84
37390;BME280;39679;49.000;8.390;2022-11-06T07:35:35;100284.25;;;17.10;52.76
37390;BME280;39679;49.000;8.390;2022-11-06T07:40:35;100289.53;;;17.10;52.79
37390;BME280;39679;49.000;8.390;2022-11-06T07:45:37;100298.38;;;17.10;52.74
37390;BME280;39679;49.000;8.390;2022-11-06T07:50:37;100299.25;;;17.09;52.57
37390;BME280;39679;49.000;8.390;2022-11-06T07:55:38;100314.28;;;17.09;52.66
37390;BME280;39679;49.000;8.390;2022-11-06T08:00:38;100327.53;;;17.09;52.75
37390;BME280;39679;49.000;8.390;2022-11-06T08:05:38;100331.94;;;17.08;52.72
37390;BME280;39679;49.000;8.390;2022-11-06T08:10:39;100346.06;;;17.07;52.74
37390;BME280;39679;49.000;8.390;2022-11-06T08:15:40;100352.25;;;17.08;52.79
37390;BME280;39679;49.000;8.390;2022-11-06T08:20:41;100377.00;;;17.07;52.67
37390;BME280;39679;49.000;8.390;2022-11-06T08:25:41;100402.56;;;17.08;52.78
37390;BME280;39679;49.000;8.390;2022-11-06T08:30:41;100393.72;;;17.07;52.81
37390;BME280;39679;49.000;8.390;2022-11-06T08:35:42;100392.00;;;17.06;52.67
37390;BME280;39679;49.000;8.390;2022-11-06T08:40:42;100362.00;;;17.06;52.70
37390;BME280;39679;49.000;8.390;2022-11-06T08:45:43;100371.69;;;17.05;52.57
37390;BME280;39679;49.000;8.390;2022-11-06T08:50:43;100351.44;;;17.03;52.93
37390;BME280;39679;49.000;8.390;2022-11-06T08:55:43;100352.31;;;17.03;52.99
37390;BME280;39679;49.000;8.390;2022-11-06T09:00:44;100318.75;;;17.05;52.90
37390;BME280;39679;49.000;8.390;2022-11-06T09:05:44;100299.31;;;17.05;53.02
37390;BME280;39679;49.000;8.390;2022-11-06T09:10:45;100308.22;;;17.02;53.07
37390;BME280;39679;49.000;8.390;2022-11-06T09:15:45;100284.34;;;17.04;52.98
37390;BME280;39679;49.000;8.390;2022-11-06T09:20:46;100267.59;;;17.03;52.97
37390;BME280;39679;49.000;8.390;2022-11-06T09:25:46;100266.72;;;17.03;52.99
37390;BME280;39679;49.000;8.390;2022-11-06T09:30:46;100261.41;;;17.03;53.16
37390;BME280;39679;49.000;8.390;2022-11-06T09:35:47;100249.97;;;17.02;53.11
37390;BME280;39679;49.000;8.390;2022-11-06T09:45:51;100233.22;;;17.02;53.22
37390;BME280;39679;49.000;8.390;2022-11-06T09:56:13;100222.63;;;17.02;53.19
37390;BME280;39679;49.000;8.390;2022-11-06T10:01:22;100223.50;;;17.01;53.33
37390;BME280;39679;49.000;8.390;2022-11-06T10:06:23;100198.78;;;17.02;53.18
37390;BME280;39679;49.000;8.390;2022-11-06T10:17:18;100171.44;;;17.01;53.26
37390;BME280;39679;49.000;8.390;2022-11-06T10:22:38;100162.63;;;17.01;53.57
37390;BME280;39679;49.000;8.390;2022-11-06T10:27:40;100149.38;;;17.01;53.48
37390;BME280;39679;49.000;8.390;2022-11-06T10:37:55;100123.81;;;17.00;53.33
37390;BME280;39679;49.000;8.390;2022-11-06T10:48:23;100110.59;;;17.00;53.39
37390;BME280;39679;49.000;8.390;2022-11-06T10:53:43;100092.06;;;17.00;53.46
37390;BME280;39679;49.000;8.390;2022-11-06T10:58:51;100092.06;;;17.00;53.46
37390;BME280;39679;49.000;8.390;2022-11-06T11:03:52;100072.66;;;16.99;53.46
37390;BME280;39679;49.000;8.390;2022-11-06T11:08:52;100084.16;;;16.98;53.54
37390;BME280;39679;49.000;8.390;2022-11-06T11:19:14;100060.28;;;17.00;53.56
37390;BME280;39679;49.000;8.390;2022-11-06T11:24:15;100051.47;;;16.99;53.87
37390;BME280;39679;49.000;8.390;2022-11-06T11:29:18;100035.56;;;16.99;53.82
37390;BME280;39679;49.000;8.390;2022-11-06T11:34:24;100021.47;;;17.00;53.85
37390;BME280;39679;49.000;8.390;2022-11-06T11:39:36;100005.56;;;17.00;53.66
37390;BME280;39679;49.000;8.390;2022-11-06T11:44:37;99982.63;;;16.99;53.73
37390;BME280;39679;49.000;8.390;2022-11-06T11:49:38;99975.56;;;17.00;53.66
37390;BME280;39679;49.000;8.390;2022-11-06T11:54:38;99987.94;;;16.99;53.92
37390;BME280;39679;49.000;8.390;2022-11-06T11:59:48;99981.75;;;17.00;53.74
37390;BME280;39679;49.000;8.390;2022-11-06T12:04:55;99982.59;;;17.01;53.90
37390;BME280;39679;49.000;8.390;2022-11-06T12:09:58;99957.91;;;17.00;53.85
37390;BME280;39679;49.000;8.390;2022-11-06T12:15:19;99949.09;;;17.00;53.97
37390;BME280;39679;49.000;8.390;2022-11-06T12:20:25;99947.31;;;17.00;53.79
37390;BME280;39679;49.000;8.390;2022-11-06T12:25:34;99931.44;;;17.00;53.92
37390;BME280;39679;49.000;8.390;2022-11-06T12:30:35;99937.63;;;16.99;53.90
37390;BME280;39679;49.000;8.390;2022-11-06T12:41:01;99933.25;;;16.98;53.81
37390;BME280;39679;49.000;8.390;2022-11-06T13:13:42;99876.78;;;16.98;54.00
37390;BME280;39679;49.000;8.390;2022-11-06T13:18:23;99881.19;;;16.97;54.30
37390;BME280;39679;49.000;8.390;2022-11-06T13:23:29;99877.66;;;16.98;54.13
37390;BME280;39679;49.000;8.390;2022-11-06T13:33:41;99873.22;;;16.99;54.45
37390;BME280;39679;49.000;8.390;2022-11-06T13:38:50;99847.66;;;16.98;54.28
37390;BME280;39679;49.000;8.390;2022-11-06T14:10:36;99835.41;;;16.94;52.21
37390;BME280;39679;49.000;8.390;2022-11-06T14:15:38;99825.03;;;16.85;50.87
37390;BME280;39679;49.000;8.390;2022-11-06T14:20:39;99838.47;;;16.77;51.03
37390;BME280;39679;49.000;8.390;2022-11-06T14:30:41;99837.09;;;16.61;50.65
37390;BME280;39679;49.000;8.390;2022-11-06T14:40:45;99820.59;;;16.52;51.38
37390;BME280;39679;49.000;8.390;2022-11-06T14:45:50;99821.53;;;16.47;50.73
37390;BME280;39679;49.000;8.390;2022-11-06T14:50:52;99803.13;;;16.41;51.16
37390;BME280;39679;49.000;8.390;2022-11-06T14:56:00;99822.63;;;16.37;51.88
37390;BME280;39679;49.000;8.390;2022-11-06T15:01:12;99827.06;;;16.35;52.04
37390;BME280;39679;49.000;8.390;2022-11-06T15:16:40;99839.13;;;16.50;53.22
37390;BME280;39679;49.000;8.390;2022-11-06T15:21:45;99836.38;;;16.55;53.53
37390;BME280;39679;49.000;8.390;2022-11-06T15:26:53;99847.75;;;16.58;53.50
37390;BME280;39679;49.000;8.390;2022-11-06T15:32:01;99845.00;;;16.63;53.66
37390;BME280;39679;49.000;8.390;2022-11-06T15:37:09;99828.19;;;16.65;54.04
37390;BME280;39679;49.000;8.390;2022-11-06T15:42:14;99806.09;;;16.68;54.43
37390;BME280;39679;49.000;8.390;2022-11-06T15:47:25;99798.06;;;16.71;54.05
37390;BME280;39679;49.000;8.390;2022-11-06T15:52:26;99792.72;;;16.72;53.85
37390;BME280;39679;49.000;8.390;2022-11-06T15:57:28;99798.88;;;16.74;54.33
37390;BME280;39679;49.000;8.390;2022-11-06T16:02:28;99796.19;;;16.76;54.27
37390;BME280;39679;49.000;8.390;2022-11-06T16:07:29;99785.56;;;16.77;54.26
37390;BME280;39679;49.000;8.390;2022-11-06T16:12:30;99793.44;;;16.79;54.32
37390;BME280;39679;49.000;8.390;2022-11-06T16:17:30;99793.44;;;16.79;54.38
37390;BME280;39679;49.000;8.390;2022-11-06T16:22:31;99797.78;;;16.81;54.28
37390;BME280;39679;49.000;8.390;2022-11-06T16:27:35;99785.44;;;16.82;54.68
37390;BME280;39679;49.000;8.390;2022-11-06T16:32:39;99818.91;;;16.84;54.70
37390;BME280;39679;49.000;8.390;2022-11-06T16:37:40;99825.88;;;16.87;54.81
37390;BME280;39679;49.000;8.390;2022-11-06T16:43:00;99817.91;;;16.88;54.76
37390;BME280;39679;49.000;8.390;2022-11-06T16:53:08;99828.41;;;16.91;54.57
37390;BME280;39679;49.000;8.390;2022-11-06T16:58:14;99835.47;;;16.92;54.49
37390;BME280;39679;49.000;8.390;2022-11-06T17:03:20;99836.31;;;16.93;54.57
37390;BME280;39679;49.000;8.390;2022-11-06T17:08:39;99857.47;;;16.94;54.91
37390;BME280;39679;49.000;8.390;2022-11-06T17:13:44;99860.13;;;16.93;54.99
37390;BME280;39679;49.000;8.390;2022-11-06T17:18:45;99857.53;;;16.91;55.09
37390;BME280;39679;49.000;8.390;2022-11-06T17:23:46;99854.81;;;16.94;55.38
37390;BME280;39679;49.000;8.390;2022-11-06T17:28:46;99864.53;;;16.94;55.15
37390;BME280;39679;49.000;8.390;2022-11-06T17:33:47;99869.88;;;16.92;55.45
37390;BME280;39679;49.000;8.390;2022-11-06T17:38:47;99868.06;;;16.93;55.35
37390;BME280;39679;49.000;8.390;2022-11-06T17:43:48;99877.81;;;16.91;55.33
37390;BME280;39679;49.000;8.390;2022-11-06T17:48:48;99874.28;;;16.92;54.98
37390;BME280;39679;49.000;8.390;2022-11-06T17:53:48;99865.47;;;16.91;54.81
37390;BME280;39679;49.000;8.390;2022-11-06T17:58:49;99882.28;;;16.90;54.95
37390;BME280;39679;49.000;8.390;2022-11-06T18:03:49;99868.16;;;16.90;54.70
37390;BME280;39679;49.000;8.390;2022-11-06T18:08:54;99882.28;;;16.90;54.60
37390;BME280;39679;49.000;8.390;2022-11-06T18:13:55;99887.56;;;16.90;54.49
37390;BME280;39679;49.000;8.390;2022-11-06T18:18:55;99883.16;;;16.89;54.85
37390;BME280;39679;49.000;8.390;2022-11-06T18:23:56;99875.22;;;16.89;54.32
37390;BME280;39679;49.000;8.390;2022-11-06T18:28:56;99884.03;;;16.90;54.49
37390;BME280;39679;49.000;8.390;2022-11-06T18:33:57;99893.75;;;16.89;54.14
37390;BME280;39679;49.000;8.390;2022-11-06T18:38:57;99892.88;;;16.89;54.33
37390;BME280;39679;49.000;8.390;2022-11-06T18:43:58;99901.75;;;16.88;53.97
37390;BME280;39679;49.000;8.390;2022-11-06T18:48:58;99907.94;;;16.87;53.87
37390;BME280;39679;49.000;8.390;2022-11-06T18:54:00;99899.13;;;16.86;54.22
37390;BME280;39679;49.000;8.390;2022-11-06T18:59:01;99902.63;;;16.87;53.86
37390;BME280;39679;49.000;8.390;2022-11-06T19:04:02;99913.22;;;16.87;54.05
37390;BME280;39679;49.000;8.390;2022-11-06T19:09:02;99915.03;;;16.86;54.16
37390;BME280;39679;49.000;8.390;2022-11-06T19:14:04;99913.22;;;16.87;54.51
37390;BME280;39679;49.000;8.390;2022-11-06T19:19:05;99917.66;;;16.86;54.26
37390;BME280;39679;49.000;8.390;2022-11-06T19:24:05;99928.25;;;16.86;54.50
37390;BME280;39679;49.000;8.390;2022-11-06T19:29:07;99931.78;;;16.85;54.44
37390;BME280;39679;49.000;8.390;2022-11-06T19:34:10;99937.97;;;16.86;54.40
37390;BME280;39679;49.000;8.390;2022-11-06T19:39:11;99930.06;;;16.84;54.56
37390;BME280;39679;49.000;8.390;2022-11-06T19:44:12;99931.84;;;16.84;54.43
37390;BME280;39679;49.000;8.390;2022-11-06T19:49:12;99928.31;;;16.83;54.48
37390;BME280;39679;49.000;8.390;2022-11-06T19:54:14;99930.06;;;16.83;54.52
37390;BME280;39679;49.000;8.390;2022-11-06T19:59:14;99934.47;;;16.84;54.49
37390;BME280;39679;49.000;8.390;2022-11-06T20:04:15;99924.78;;;16.83;54.71
37390;BME280;39679;49.000;8.390;2022-11-06T20:09:15;99927.47;;;16.81;54.65
37390;BME280;39679;49.000;8.390;2022-11-06T20:14:16;99927.47;;;16.81;54.36
37390;BME280;39679;49.000;8.390;2022-11-06T20:19:16;99923.94;;;16.82;54.56
37390;BME280;39679;49.000;8.390;2022-11-06T20:24:17;99915.13;;;16.82;54.56
37390;BME280;39679;49.000;8.390;2022-11-06T20:29:18;99922.22;;;16.80;54.31
37390;BME280;39679;49.000;8.390;2022-11-06T20:34:18;99925.75;;;16.80;54.33
37390;BME280;39679;49.000;8.390;2022-11-06T20:39:19;99922.22;;;16.80;54.43
37390;BME280;39679;49.000;8.390;2022-11-06T20:44:19;99923.13;;;16.79;54.74
37390;BME280;39679;49.000;8.390;2022-11-06T20:49:20;99915.19;;;16.79;54.59
37390;BME280;39679;49.000;8.390;2022-11-06T20:54:21;99915.22;;;16.77;54.40
37390;BME280;39679;49.000;8.390;2022-11-06T20:59:21;99921.38;;;16.78;54.31
37390;BME280;39679;49.000;8.390;2022-11-06T21:04:21;99926.69;;;16.78;54.44
37390;BME280;39679;49.000;8.390;2022-11-06T21:09:22;99946.97;;;16.77;54.40
37390;BME280;39679;49.000;8.390;2022-11-06T21:14:22;99956.69;;;16.77;54.04
37390;BME280;39679;49.000;8.390;2022-11-06T21:19:23;99979.63;;;16.78;54.30
37390;BME280;39679;49.000;8.390;2022-11-06T21:24:24;99990.19;;;16.78;54.50
37390;BME280;39679;49.000;8.390;2022-11-06T21:29:24;99996.38;;;16.78;54.60
37390;BME280;39679;49.000;8.390;2022-11-06T21:34:25;100002.50;;;16.79;54.76
37390;BME280;39679;49.000;8.390;2022-11-06T21:39:25;99995.44;;;16.79;54.80
37390;BME280;39679;49.000;8.390;2022-11-06T21:44:26;99999.00;;;16.78;54.82
37390;BME280;39679;49.000;8.390;2022-11-06T21:49:26;100009.59;;;16.78;54.80
37390;BME280;39679;49.000;8.390;2022-11-06T21:54:27;100028.97;;;16.80;54.93
37390;BME280;39679;49.000;8.390;2022-11-06T21:59:28;100028.09;;;16.80;54.57
37390;BME280;39679;49.000;8.390;2022-11-06T22:04:28;100035.16;;;16.79;54.43
37390;BME280;39679;49.000;8.390;2022-11-06T22:09:29;100051.03;;;16.79;54.98
37390;BME280;39679;49.000;8.390;2022-11-06T22:14:32;100044.84;;;16.79;54.69
37390;BME280;39679;49.000;8.390;2022-11-06T22:19:32;100056.34;;;16.78;54.18
37390;BME280;39679;49.000;8.390;2022-11-06T22:24:32;100058.91;;;16.81;54.87
37390;BME280;39679;49.000;8.390;2022-11-06T22:29:33;100062.50;;;16.80;54.70
37390;BME280;39679;49.000;8.390;2022-11-06T22:34:33;100070.38;;;16.81;54.45
37390;BME280;39679;49.000;8.390;2022-11-06T22:39:37;100066.88;;;16.81;54.24
37390;BME280;39679;49.000;8.390;2022-11-06T22:44:37;100055.44;;;16.80;54.32
37390;BME280;39679;49.000;8.390;2022-11-06T22:49:37;100055.44;;;16.80;55.10
37390;BME280;39679;49.000;8.390;2022-11-06T22:54:38;100055.38;;;16.82;54.58
37390;BME280;39679;49.000;8.390;2022-11-06T22:59:38;100064.22;;;16.81;54.40
37390;BME280;39679;49.000;8.390;2022-11-06T23:04:38;100057.16;;;16.81;54.40
37390;BME280;39679;49.000;8.390;2022-11-06T23:09:39;100066.84;;;16.82;54.68
37390;BME280;39679;49.000;8.390;2022-11-06T23:14:39;100074.66;;;16.87;54.76
37390;BME280;39679;49.000;8.390;2022-11-06T23:19:41;100073.75;;;16.89;54.88
37390;BME280;39679;49.000;8.390;2022-11-06T23:24:47;100080.81;;;16.90;54.86
37390;BME280;39679;49.000;8.390;2022-11-06T23:29:48;100070.13;;;16.93;55.11
37390;BME280;39679;49.000;8.390;2022-11-06T23:34:49;100071.88;;;16.94;55.12
37390;BME280;39679;49.000;8.390;2022-11-06T23:39:50;100083.31;;;16.96;55.26
37390;BME280;39679;49.000;8.390;2022-11-06T23:44:51;100075.34;;;16.98;55.25
37390;BME280;39679;49.000;8.390;2022-11-06T23:49:51;100073.53;;;17.00;55.05
37390;BME280;39679;49.000;8.390;2022-11-06T23:54:52;100082.31;;;17.02;55.23
37390;BME280;39679;49.000;8.390;2022-11-06T23:59:52;100074.31;;;17.03;55.24
